Millinocket, Maine
Current Conditions -  °F | °C
As of 3:53 AM on Wednesday 22 Oct 2014 (Local Time) from KMLT Reporting Station
Overcast Overcast  
Wind Chill:   Ceiling: 5500
Heat Index:   Visibility: 10mi
Dew Point:   Wind: 9mph
Humidity: 65%   Direction: 40°NE
Pressure: 30.25"   Gusts: NA
Location:  45.66°N, 68.71°W
Report Text: KMLT 220753Z AUTO 04008KT 10SM FEW035 OVC055 07/01 A3025 RMK AO2 SLP251 T00670006
Loading
Personal Weather Stations






























Interactive Weather Map
Tropical Storm Tracking
New forecast layout! Learn more

10-Day Weather Forecast

Advertisements
Track Severe Weather on mobile